Time;durP1;ratioP1;P1;durP2;ratioP2;P2;SDS_P1;SDS_P2;PMS_P1;PMS_P2;Temp;Humidity;BMP_temperature;BMP_pressure;BME280_temperature;BME280_humidity;BME280_pressure;Samples;Min_cycle;Max_cycle;Signal;HPM_P1;HPM_P2
2021/12/05 17:28:41;;;;;;;16.00;10.57;;;;;;;7.30;50.15;99589.56;3897453;23;20361;-77
2021/12/05 17:30:23;;;;;;;14.05;9.98;;;;;;;7.26;50.05;99593.59;3373800;29;20037;-77
2021/12/05 17:32:24;;;;;;;20.88;10.80;;;;;;;7.25;50.35;99592.75;3360984;29;20136;-76
2021/12/05 17:34:18;;;;;;;21.63;12.65;;;;;;;7.19;50.48;99593.47;3375875;29;20048;-76
2021/12/05 17:36:16;;;;;;;22.05;11.90;;;;;;;7.21;50.74;99596.75;3369747;29;20428;-76
2021/12/05 17:37:57;;;;;;;21.23;12.40;;;;;;;7.13;50.79;99602.94;3376314;29;20041;-77
2021/12/05 17:39:41;;;;;;;19.05;11.50;;;;;;;7.10;50.92;99611.25;3365043;29;20059;-78
2021/12/05 17:41:28;;;;;;;20.45;11.80;;;;;;;7.07;51.13;99610.75;3363395;29;20056;-75
2021/12/05 17:43:09;;;;;;;15.73;10.90;;;;;;;7.05;51.18;99608.28;3364774;29;20053;-76
2021/12/05 17:44:53;;;;;;;21.55;11.75;;;;;;;7.05;51.21;99608.28;3364481;29;20523;-77
2021/12/05 17:46:35;;;;;;;15.77;11.05;;;;;;;7.09;51.51;99606.91;3364691;29;20503;-74
2021/12/05 17:48:15;;;;;;;19.92;10.65;;;;;;;7.14;51.65;99611.72;3364061;29;20048;-77
2021/12/05 17:49:59;;;;;;;19.38;10.23;;;;;;;7.15;51.72;99616.84;3363434;29;20078;-74
2021/12/05 17:51:42;;;;;;;19.98;12.98;;;;;;;7.14;51.90;99607.22;3367113;29;20100;-76
2021/12/05 17:53:29;;;;;;;23.33;11.20;;;;;;;7.17;52.06;99612.19;3367164;29;20444;-74
2021/12/05 17:55:32;;;;;;;17.58;11.05;;;;;;;7.20;52.16;99608.34;3364361;29;20048;-74
2021/12/05 17:57:17;;;;;;;19.25;11.60;;;;;;;7.22;52.20;99614.31;3364296;29;20108;-72
2021/12/05 17:59:23;;;;;;;23.60;10.07;;;;;;;7.20;52.14;99616.31;3363758;29;20045;-74
2021/12/05 18:03:08;;;;;;;19.38;11.13;;;;;;;7.18;52.28;99608.53;3364259;29;20120;-73
2021/12/05 18:04:52;;;;;;;15.70;10.50;;;;;;;7.20;52.37;99616.31;3364211;29;20048;-74
2021/12/05 18:06:34;;;;;;;19.73;12.30;;;;;;;7.16;52.39;99607.88;3363893;29;20086;-75
2021/12/05 18:08:21;;;;;;;21.38;11.65;;;;;;;7.19;52.21;99609.38;3364302;29;20056;-79
2021/12/05 18:10:03;;;;;;;15.32;9.43;;;;;;;7.20;52.38;99621.59;3364769;29;20045;-79
2021/12/05 18:11:44;;;;;;;19.27;11.10;;;;;;;7.21;52.30;99617.97;3368670;29;20085;-77
2021/12/05 18:13:28;;;;;;;18.30;9.68;;;;;;;7.21;52.53;99623.28;3366430;29;20069;-75
2021/12/05 18:15:18;;;;;;;17.88;10.80;;;;;;;7.20;52.56;99621.59;3364331;29;20069;-80
2021/12/05 18:17:02;;;;;;;16.00;10.25;;;;;;;7.21;52.52;99633.88;3370968;29;20044;-81
2021/12/05 18:18:44;;;;;;;18.20;10.73;;;;;;;7.20;52.45;99625.09;3365081;29;20076;-78
2021/12/05 18:20:29;;;;;;;14.23;9.10;;;;;;;7.20;52.80;99627.75;3366536;29;20033;-79
2021/12/05 18:22:11;;;;;;;18.13;10.10;;;;;;;7.18;52.57;99624.44;3367582;29;20540;-80
2021/12/05 18:23:56;;;;;;;15.93;9.55;;;;;;;7.21;52.56;99632.03;3367165;29;20037;-76
2021/12/05 18:25:38;;;;;;;14.57;9.45;;;;;;;7.20;52.61;99633.06;3370371;29;20052;-76
2021/12/05 18:27:18;;;;;;;14.50;9.45;;;;;;;7.20;52.81;99633.06;3369097;29;20047;-79
2021/12/05 18:29:00;;;;;;;16.85;9.25;;;;;;;7.17;52.85;99629.91;3363314;29;20530;-77
2021/12/05 18:30:42;;;;;;;;;;;;;;;7.33;52.49;99636.94;3371340;29;20052;-76
2021/12/05 18:32:22;;;;;;;15.43;9.13;;;;;;;7.27;52.65;99643.78;3375599;29;19943;-77
2021/12/05 18:34:10;;;;;;;18.38;10.13;;;;;;;7.27;52.89;99641.13;3376485;29;20486;-75
2021/12/05 18:36:01;;;;;;;14.25;8.82;;;;;;;7.27;52.62;99643.78;3375125;29;20040;-76
2021/12/05 18:37:47;;;;;;;12.75;9.40;;;;;;;7.28;52.67;99642.78;3378304;29;20035;-75
2021/12/05 18:39:38;;;;;;;16.70;8.93;;;;;;;7.28;52.67;99644.59;3373176;29;20048;-75
2021/12/05 18:41:21;;;;;;;14.93;9.05;;;;;;;7.32;52.54;99644.06;3377008;29;20135;-76
2021/12/05 18:43:02;;;;;;;13.25;8.27;;;;;;;7.33;52.58;99652.84;3375471;29;20496;-76
2021/12/05 18:44:49;;;;;;;17.48;8.55;;;;;;;7.36;52.54;99648.03;3375064;29;20047;-76
2021/12/05 18:46:31;;;;;;;13.75;9.25;;;;;;;7.34;52.57;99657.16;3373800;29;20103;-76
2021/12/05 18:48:13;;;;;;;15.65;8.55;;;;;;;7.43;52.47;99649.00;3374374;29;20127;-76
2021/12/05 18:49:55;;;;;;;15.63;9.45;;;;;;;7.45;52.46;99653.28;3371948;29;20041;-77
2021/12/05 18:51:36;;;;;;;14.43;8.70;;;;;;;7.46;52.48;99662.88;3374974;29;20040;-75
2021/12/05 18:53:19;;;;;;;13.48;8.35;;;;;;;7.50;52.66;99666.84;3375755;29;20043;-75
2021/12/05 18:55:01;;;;;;;14.25;8.27;;;;;;;7.48;52.64;99661.69;3373308;29;20467;-74
2021/12/05 18:56:42;;;;;;;12.07;8.18;;;;;;;7.49;52.67;99662.56;3374073;29;20045;-78
2021/12/05 18:58:24;;;;;;;14.93;7.93;;;;;;;7.47;52.66;99659.25;3372301;29;20404;-75
2021/12/05 19:00:13;;;;;;;;;;;;;;;7.56;52.36;99666.13;3382944;29;20047;-78
2021/12/05 19:06:07;;;;;;;10.98;7.30;;;;;;;7.46;52.41;99652.28;3374392;29;20116;-80
2021/12/05 19:08:03;;;;;;;14.30;8.80;;;;;;;7.44;52.77;99663.06;3378037;29;20040;-79
2021/12/05 19:11:47;;;;;;;15.93;9.20;;;;;;;7.41;52.92;99656.28;3375737;29;20039;-81
2021/12/05 19:13:28;;;;;;;19.30;8.23;;;;;;;7.40;52.94;99654.63;3376281;29;20092;-77
2021/12/05 19:15:10;;;;;;;15.23;8.25;;;;;;;7.38;53.24;99654.00;3374926;29;20048;-76
2021/12/05 19:16:56;;;;;;;18.33;8.20;;;;;;;7.39;53.22;99662.78;3372205;29;20435;-79
2021/12/05 19:18:37;;;;;;;12.55;7.57;;;;;;;7.40;53.17;99659.09;3375856;29;20480;-79
2021/12/05 19:20:23;;;;;;;14.10;8.27;;;;;;;7.43;53.32;99664.06;3374613;29;20064;-77
2021/12/05 19:22:05;;;;;;;16.92;8.40;;;;;;;7.42;53.17;99651.81;3375750;29;20044;-80
2021/12/05 19:23:47;;;;;;;13.75;7.25;;;;;;;7.45;53.16;99655.94;3373389;29;20533;-78
2021/12/05 19:25:30;;;;;;;12.00;7.47;;;;;;;7.45;53.57;99650.63;3375390;29;20048;-80
2021/12/05 19:27:15;;;;;;;16.67;8.50;;;;;;;7.43;53.50;99659.59;3376063;29;20514;-80
2021/12/05 19:28:57;;;;;;;16.80;8.95;;;;;;;7.41;53.50;99661.59;3373713;29;20579;-80
2021/12/05 19:30:49;;;;;;;;;;;;;;;7.53;53.27;99658.53;3376242;29;20162;-80
2021/12/05 19:32:30;;;;;;;12.23;7.63;;;;;;;7.39;53.06;99663.59;3374872;29;19919;-77
2021/12/05 19:34:11;;;;;;;12.80;7.32;;;;;;;7.37;53.03;99657.63;3374888;29;20041;-76
2021/12/05 19:35:53;;;;;;;12.93;8.05;;;;;;;7.38;52.94;99671.72;3371380;29;20040;-75
2021/12/05 19:37:37;;;;;;;14.73;8.32;;;;;;;7.31;53.03;99654.88;3374147;29;20044;-77
2021/12/05 19:39:33;;;;;;;14.85;7.75;;;;;;;7.38;53.28;99667.25;3375127;29;20227;-77
2021/12/05 19:41:21;;;;;;;14.70;8.30;;;;;;;7.36;53.17;99665.78;3380823;29;20060;-76
2021/12/05 19:43:13;;;;;;;30.83;8.82;;;;;;;7.37;53.37;99670.88;3366829;29;20048;-77
2021/12/05 19:44:55;;;;;;;17.25;8.93;;;;;;;7.31;53.71;99661.00;3364715;29;20036;-77
2021/12/05 19:46:38;;;;;;;18.73;9.82;;;;;;;7.20;53.35;99653.41;3373567;29;20480;-79
2021/12/05 19:48:19;;;;;;;21.42;10.82;;;;;;;7.41;53.51;99682.00;3375066;29;20563;-77
2021/12/05 19:50:00;;;;;;;25.98;12.20;;;;;;;7.44;53.59;99684.28;3372720;29;20041;-79
2021/12/05 19:51:42;;;;;;;18.80;11.98;;;;;;;7.48;53.55;99690.88;3384031;29;20032;-80
2021/12/05 19:53:23;;;;;;;21.80;12.43;;;;;;;7.50;53.47;99696.00;3374185;29;20040;-77
2021/12/05 19:55:05;;;;;;;23.25;12.73;;;;;;;7.51;53.54;99697.66;3369669;29;20476;-76
2021/12/05 19:56:48;;;;;;;24.10;12.65;;;;;;;7.52;53.62;99704.63;3368754;29;20075;-76
2021/12/05 19:58:29;;;;;;;33.25;14.73;;;;;;;7.53;53.83;99703.63;3368534;29;21136;-77
2021/12/05 20:00:14;;;;;;;30.90;13.85;;;;;;;7.47;54.29;99691.06;3371005;29;20131;-76
2021/12/05 20:01:58;;;;;;;33.10;14.38;;;;;;;7.46;54.22;99698.19;3372553;29;20049;-78
2021/12/05 20:03:49;;;;;;;33.05;15.63;;;;;;;7.46;54.48;99697.34;3356768;29;20044;-75
2021/12/05 20:05:32;;;;;;;31.40;14.73;;;;;;;7.45;54.35;99703.66;3368026;29;20059;-78
2021/12/05 20:07:13;;;;;;;28.58;13.65;;;;;;;7.45;54.25;99698.38;3370701;29;20159;-79
2021/12/05 20:08:54;;;;;;;25.08;14.35;;;;;;;7.47;54.42;99701.69;3372593;29;20068;-75
2021/12/05 20:10:37;;;;;;;31.80;14.52;;;;;;;7.47;54.20;99701.69;3372804;29;20040;-76
2021/12/05 20:12:18;;;;;;;24.15;13.63;;;;;;;7.50;53.85;99698.66;3371670;29;20051;-78
2021/12/05 20:13:59;;;;;;;31.52;16.08;;;;;;;7.55;53.69;99710.41;3372801;29;20033;-77
2021/12/05 20:15:41;;;;;;;25.58;13.48;;;;;;;7.56;53.77;99705.91;3374284;29;20461;-78
2021/12/05 20:17:22;;;;;;;29.58;14.55;;;;;;;7.59;54.17;99708.22;3370644;29;20041;-77
2021/12/05 20:19:04;;;;;;;27.13;14.68;;;;;;;7.62;54.44;99721.16;3371052;29;20044;-76
2021/12/05 20:20:48;;;;;;;28.73;14.05;;;;;;;7.59;54.62;99710.88;3370033;29;20135;-76
2021/12/05 20:22:29;;;;;;;26.60;15.15;;;;;;;7.54;54.38;99708.75;3365574;29;20500;-77
2021/12/05 20:24:11;;;;;;;31.15;16.75;;;;;;;7.50;54.42;99706.63;3367373;29;20076;-75
2021/12/05 20:25:52;;;;;;;25.98;14.18;;;;;;;7.45;54.05;99708.97;3362259;29;20051;-75
2021/12/05 20:27:35;;;;;;;26.20;13.48;;;;;;;7.41;53.97;99708.50;3369001;29;20437;-75
2021/12/05 20:29:16;;;;;;;30.95;14.85;;;;;;;7.36;53.94;99711.66;3373432;29;20060;-73
2021/12/05 20:30:57;;;;;;;30.30;15.43;;;;;;;7.32;53.75;99718.31;3376020;29;20040;-75
2021/12/05 20:32:38;;;;;;;27.60;14.00;;;;;;;7.28;53.67;99719.66;3371501;29;20107;-76
2021/12/05 20:34:23;;;;;;;29.92;14.07;;;;;;;7.26;53.44;99723.50;3369735;29;20461;-75
2021/12/05 20:36:08;;;;;;;28.85;14.52;;;;;;;7.20;53.71;99717.03;3376055;29;20040;-73
2021/12/05 20:37:56;;;;;;;32.83;14.68;;;;;;;7.17;53.49;99712.06;3377347;29;20044;-74
2021/12/05 20:39:37;;;;;;;26.90;14.43;;;;;;;7.20;53.59;99717.88;3371441;29;20595;-77
2021/12/05 20:41:25;;;;;;;25.63;14.98;;;;;;;7.22;53.83;99715.03;3367952;29;20501;-75
2021/12/05 20:43:17;;;;;;;30.30;14.05;;;;;;;7.23;54.01;99724.66;3381689;29;20141;-78
2021/12/05 20:44:57;;;;;;;34.53;16.15;;;;;;;7.23;53.97;99722.00;3377820;29;20063;-77
2021/12/05 20:46:39;;;;;;;40.63;21.60;;;;;;;7.11;53.99;99710.13;3376830;29;20131;-75
2021/12/05 20:48:21;;;;;;;28.95;17.50;;;;;;;7.21;54.33;99729.28;3376124;29;20045;-74
2021/12/05 20:50:07;;;;;;;29.95;17.08;;;;;;;7.20;54.07;99732.94;3376823;29;20079;-73
2021/12/05 20:51:49;;;;;;;29.02;15.32;;;;;;;7.19;54.02;99731.28;3375249;29;20068;-77
2021/12/05 20:53:29;;;;;;;28.98;15.52;;;;;;;7.19;53.90;99731.28;3377445;29;20059;-79
2021/12/05 20:55:17;;;;;;;24.35;14.35;;;;;;;7.21;54.07;99731.94;3376833;29;20507;-78
2021/12/05 20:56:58;;;;;;;27.27;15.90;;;;;;;7.19;54.04;99732.09;3376133;29;20548;-77
2021/12/05 20:58:40;;;;;;;32.78;14.93;;;;;;;7.17;54.08;99736.75;3375916;29;20040;-77
2021/12/05 21:00:32;;;;;;;26.25;15.07;;;;;;;7.24;53.67;99741.38;3379060;29;20040;-76
2021/12/05 21:02:14;;;;;;;27.30;14.15;;;;;;;7.17;53.71;99739.41;3362176;29;20564;-74
2021/12/05 21:03:56;;;;;;;21.48;13.35;;;;;;;7.16;53.88;99747.53;3356330;29;20041;-71
2021/12/05 21:05:44;;;;;;;26.05;13.77;;;;;;;7.10;53.93;99737.59;3374299;29;20084;-74
2021/12/05 21:07:28;;;;;;;24.75;15.32;;;;;;;7.08;53.82;99751.03;3377774;29;20036;-75
2021/12/05 21:09:11;;;;;;;21.67;13.40;;;;;;;7.03;53.87;99748.06;3376800;29;20076;-71
2021/12/05 21:10:57;;;;;;;30.50;13.00;;;;;;;6.97;53.59;99752.22;3374869;29;20045;-70
2021/12/05 21:12:38;;;;;;;23.25;13.93;;;;;;;6.92;53.74;99756.41;3375501;29;20100;-72
2021/12/05 21:14:36;;;;;;;;;;;;;;;7.03;53.61;99758.66;3372329;29;20044;-74
2021/12/05 21:16:19;;;;;;;23.60;12.88;;;;;;;6.89;53.57;99760.22;3375782;29;20008;-72
2021/12/05 21:18:03;;;;;;;25.67;13.80;;;;;;;6.78;53.65;99761.34;3373682;29;20044;-73
2021/12/05 21:19:44;;;;;;;27.45;14.43;;;;;;;6.76;53.70;99762.53;3372573;29;20100;-74
2021/12/05 21:21:25;;;;;;;23.25;13.90;;;;;;;6.71;53.67;99775.44;3374720;29;20165;-72
2021/12/05 21:23:08;;;;;;;30.05;15.07;;;;;;;6.65;53.57;99770.81;3373872;29;20495;-73
2021/12/05 21:24:51;;;;;;;28.42;13.75;;;;;;;6.55;53.55;99761.22;3376339;29;20056;-74
2021/12/05 21:26:32;;;;;;;24.27;13.75;;;;;;;6.55;53.61;99763.03;3377059;29;20147;-74
2021/12/05 21:28:13;;;;;;;24.98;13.52;;;;;;;6.53;53.71;99770.31;3374653;29;20048;-75
2021/12/05 21:29:54;;;;;;;22.67;13.32;;;;;;;6.50;53.64;99773.31;3382115;29;20067;-74
2021/12/05 21:31:35;;;;;;;28.33;15.10;;;;;;;6.45;53.77;99767.69;3371333;29;20044;-73
2021/12/05 21:33:18;;;;;;;29.42;14.57;;;;;;;6.46;54.05;99775.47;3371199;29;20103;-73
2021/12/05 21:35:00;;;;;;;20.13;14.13;;;;;;;6.39;53.94;99763.88;3370898;29;20068;-75
2021/12/05 21:36:41;;;;;;;23.15;13.23;;;;;;;6.42;53.94;99771.50;3375325;29;20698;-74
2021/12/05 21:38:23;;;;;;;27.02;13.95;;;;;;;6.40;53.99;99770.84;3377148;29;20068;-73
2021/12/05 21:40:06;;;;;;;24.48;13.95;;;;;;;6.36;54.15;99777.47;3376370;29;20050;-73
2021/12/05 21:41:47;;;;;;;23.60;12.65;;;;;;;6.37;54.00;99778.28;3367411;29;20080;-74
2021/12/05 21:43:28;;;;;;;19.63;12.52;;;;;;;6.33;54.06;99773.31;3374215;29;20503;-72
2021/12/05 21:45:11;;;;;;;23.02;12.40;;;;;;;6.29;54.13;99782.56;3375358;29;20080;-73
2021/12/05 21:46:51;;;;;;;23.75;12.50;;;;;;;6.28;54.17;99780.94;3376203;29;20496;-72
2021/12/05 21:48:32;;;;;;;22.17;12.20;;;;;;;6.26;54.25;99784.72;3361660;29;20072;-74
2021/12/05 21:50:17;;;;;;;21.35;11.82;;;;;;;6.23;54.15;99779.78;3369871;29;20041;-72
2021/12/05 21:51:57;;;;;;;19.45;12.30;;;;;;;6.23;54.12;99777.94;3374188;29;20275;-72
2021/12/05 21:53:40;;;;;;;25.98;14.15;;;;;;;6.20;54.14;99777.47;3372744;29;20416;-71
2021/12/05 21:55:20;;;;;;;22.08;11.68;;;;;;;6.20;54.37;99782.75;3373319;29;20040;-71
2021/12/05 21:57:01;;;;;;;24.25;12.43;;;;;;;6.18;54.37;99782.91;3374554;29;20495;-72
2021/12/05 21:58:45;;;;;;;19.55;11.57;;;;;;;6.16;54.21;99781.41;3369733;29;20044;-71
2021/12/05 22:00:28;;;;;;;22.33;12.77;;;;;;;6.14;54.29;99784.22;3380694;29;20048;-73
2021/12/05 22:02:09;;;;;;;23.52;13.20;;;;;;;6.12;54.27;99783.56;3380474;29;20041;-73
2021/12/05 22:03:50;;;;;;;24.30;12.93;;;;;;;6.13;54.07;99789.69;3379958;29;20036;-73
2021/12/05 22:05:34;;;;;;;28.23;12.60;;;;;;;6.10;54.24;99788.19;3372983;29;20562;-73
2021/12/05 22:07:16;;;;;;;21.08;11.70;;;;;;;6.09;54.11;99775.94;3372259;29;20064;-72
2021/12/05 22:08:59;;;;;;;20.92;10.98;;;;;;;6.05;54.12;99786.03;3372778;29;20088;-72
2021/12/05 22:10:40;;;;;;;22.85;12.10;;;;;;;6.07;54.25;99791.16;3372307;29;20179;-73
2021/12/05 22:12:22;;;;;;;25.85;13.93;;;;;;;6.06;54.08;99786.84;3371927;29;20048;-72
2021/12/05 22:14:03;;;;;;;25.33;12.52;;;;;;;6.04;54.43;99789.66;3372144;29;20064;-75
2021/12/05 22:15:45;;;;;;;18.52;11.10;;;;;;;6.03;54.16;99798.56;3378232;29;20068;-74
2021/12/05 22:17:28;;;;;;;23.55;13.57;;;;;;;6.00;54.15;99790.97;3370651;29;20045;-71
2021/12/05 22:19:12;;;;;;;23.80;13.50;;;;;;;6.00;54.04;99795.44;3370689;29;21425;-71
2021/12/05 22:21:09;;;;;;;22.95;12.13;;;;;;;6.02;54.28;99793.47;3371336;29;20033;-72
2021/12/05 22:22:54;;;;;;;21.73;12.05;;;;;;;6.00;53.90;99792.78;3372184;29;20471;-72
2021/12/05 22:24:37;;;;;;;20.50;11.88;;;;;;;5.95;53.90;99793.28;3373122;29;20210;-72
2021/12/05 22:26:20;;;;;;;21.50;12.60;;;;;;;5.96;54.00;99799.38;3381430;29;20040;-74
2021/12/05 22:28:03;;;;;;;21.05;12.18;;;;;;;5.95;53.90;99797.75;3377695;29;20047;-74
2021/12/05 22:29:45;;;;;;;20.65;11.32;;;;;;;5.95;54.00;99811.78;3377600;29;20063;-73
2021/12/05 22:31:27;;;;;;;18.77;12.32;;;;;;;5.92;53.91;99804.16;3377196;29;20499;-73
2021/12/05 22:33:08;;;;;;;17.63;12.20;;;;;;;5.94;53.75;99804.00;3378976;29;20048;-73
2021/12/05 22:34:49;;;;;;;24.30;13.27;;;;;;;5.92;53.70;99801.50;3380828;29;20047;-72
2021/12/05 22:36:31;;;;;;;22.98;12.50;;;;;;;5.95;53.64;99817.09;3378006;29;20066;-76
2021/12/05 22:38:13;;;;;;;21.20;12.13;;;;;;;5.94;53.58;99810.16;3376030;29;20032;-73
2021/12/05 22:39:57;;;;;;;25.85;13.35;;;;;;;5.92;53.61;99817.38;3376003;29;20041;-72
2021/12/05 22:41:38;;;;;;;21.40;12.52;;;;;;;5.92;53.64;99806.81;3379787;29;20040;-73
2021/12/05 22:43:19;;;;;;;22.60;13.00;;;;;;;5.90;53.53;99809.59;3380106;29;20741;-73
2021/12/05 22:45:00;;;;;;;22.02;12.43;;;;;;;5.90;53.25;99819.34;3378451;29;20499;-74
2021/12/05 22:46:42;;;;;;;21.27;12.00;;;;;;;5.89;53.38;99817.72;3378509;29;20195;-73
2021/12/05 22:48:23;;;;;;;20.83;12.23;;;;;;;5.86;53.29;99812.72;3383344;29;20053;-72
2021/12/05 22:50:06;;;;;;;18.70;12.25;;;;;;;5.87;53.29;99815.22;3377061;29;20047;-73
2021/12/05 22:51:47;;;;;;;;;;;;;;;5.98;53.01;99826.50;3377970;29;20131;-72
2021/12/05 22:53:28;;;;;;;20.38;10.70;;;;;;;5.85;52.86;99817.19;3382205;29;19923;-74
2021/12/05 22:55:11;;;;;;;15.80;10.38;;;;;;;5.84;52.94;99830.59;3377893;29;20083;-73
2021/12/05 22:56:52;;;;;;;18.42;10.13;;;;;;;5.82;53.02;99830.72;3380689;29;20051;-74
2021/12/05 22:58:32;;;;;;;20.75;12.07;;;;;;;5.79;52.73;99822.31;3382472;29;20059;-73
2021/12/05 23:00:43;;;;;;;17.48;9.52;;;;;;;5.82;52.84;99825.44;3369172;29;20508;-74
2021/12/05 23:02:24;;;;;;;22.02;11.10;;;;;;;5.77;52.59;99824.28;3373924;29;20059;-75
2021/12/05 23:04:12;;;;;;;20.38;11.45;;;;;;;5.76;52.48;99827.91;3379132;29;20044;-75
2021/12/05 23:05:55;;;;;;;21.98;11.55;;;;;;;5.74;52.51;99821.97;3374694;29;20048;-73
2021/12/05 23:07:36;;;;;;;23.77;12.07;;;;;;;5.73;52.63;99818.50;3380486;29;20040;-73
2021/12/05 23:09:19;;;;;;;23.85;10.82;;;;;;;5.68;52.50;99821.59;3377679;29;20539;-74
2021/12/05 23:11:01;;;;;;;21.08;11.43;;;;;;;5.72;52.79;99837.16;3377460;29;20052;-72
2021/12/05 23:12:42;;;;;;;19.55;10.70;;;;;;;5.72;52.32;99832.69;3380946;29;20127;-73
2021/12/05 23:14:24;;;;;;;18.95;11.10;;;;;;;5.72;52.54;99831.84;3378207;29;20041;-72
2021/12/05 23:16:08;;;;;;;20.13;10.55;;;;;;;5.70;52.27;99829.38;3376290;29;20492;-74
2021/12/05 23:17:49;;;;;;;19.30;10.00;;;;;;;5.64;52.18;99824.72;3375940;29;20072;-73
2021/12/05 23:19:31;;;;;;;;;;;;;;;5.80;52.24;99839.81;3377484;29;20047;-74
2021/12/05 23:21:16;;;;;;;20.55;10.35;;;;;;;5.72;52.05;99837.16;3378348;29;20281;-76
2021/12/05 23:23:02;;;;;;;19.17;10.35;;;;;;;5.71;52.00;99844.25;3375686;29;20047;-75
2021/12/05 23:24:43;;;;;;;16.45;9.88;;;;;;;5.67;51.94;99846.38;3378069;29;20459;-74
2021/12/05 23:26:27;;;;;;;19.15;10.63;;;;;;;5.65;51.95;99852.81;3376975;29;20036;-74
2021/12/05 23:28:10;;;;;;;25.10;11.48;;;;;;;5.61;52.01;99840.91;3374281;29;20083;-74
2021/12/05 23:29:52;;;;;;;14.75;10.07;;;;;;;5.62;51.99;99846.03;3372196;29;20161;-73
2021/12/05 23:31:37;;;;;;;19.90;11.18;;;;;;;5.64;52.02;99846.69;3374136;29;20074;-73
2021/12/05 23:33:24;;;;;;;16.02;9.75;;;;;;;5.57;51.93;99835.09;3375884;29;20123;-72
2021/12/05 23:35:07;;;;;;;16.35;10.23;;;;;;;5.62;51.87;99843.38;3373265;29;20442;-73
2021/12/05 23:36:49;;;;;;;19.85;11.25;;;;;;;5.62;51.82;99843.38;3374963;29;20070;-72
2021/12/05 23:38:30;;;;;;;20.33;11.20;;;;;;;5.61;51.72;99848.84;3378860;29;20036;-74
2021/12/05 23:40:12;;;;;;;17.92;10.15;;;;;;;5.61;51.70;99847.03;3378786;29;20049;-74
2021/12/05 23:41:55;;;;;;;20.30;11.52;;;;;;;5.61;51.66;99841.72;3376649;29;20566;-74
2021/12/05 23:43:37;;;;;;;20.35;11.63;;;;;;;5.60;51.80;99845.38;3372121;29;20045;-74
2021/12/05 23:45:18;;;;;;;21.75;11.18;;;;;;;5.58;51.95;99847.34;3372936;29;20464;-74
2021/12/05 23:47:00;;;;;;;18.30;10.07;;;;;;;5.57;51.83;99845.66;3373576;29;20143;-75
2021/12/05 23:48:41;;;;;;;21.23;12.03;;;;;;;5.56;51.65;99851.94;3379159;29;20040;-75
2021/12/05 23:50:26;;;;;;;18.27;10.32;;;;;;;5.48;51.51;99838.69;3379007;29;20824;-73
2021/12/05 23:52:11;;;;;;;32.25;10.73;;;;;;;5.54;51.68;99853.09;3381049;29;20049;-74
2021/12/05 23:53:53;;;;;;;24.10;11.23;;;;;;;5.54;51.44;99853.09;3380734;29;20077;-74
2021/12/05 23:55:36;;;;;;;17.63;9.75;;;;;;;5.52;51.58;99858.53;3381548;29;20044;-73
2021/12/05 23:57:17;;;;;;;20.38;11.23;;;;;;;5.52;51.45;99861.16;3374488;29;20086;-74
2021/12/05 23:58:58;;;;;;;15.23;10.13;;;;;;;5.51;51.55;99861.34;3374807;29;20064;-74
